sensor_id;sensor_type;location;lat;lon;timestamp;P1;durP1;ratioP1;P2;durP2;ratioP2
357;SDS011;167;47.558;7.602;2023-07-29T00:00:56;2.47;;;1.87;;
357;SDS011;167;47.558;7.602;2023-07-29T00:03:22;2.37;;;2.27;;
357;SDS011;167;47.558;7.602;2023-07-29T00:05:49;1.90;;;1.70;;
357;SDS011;167;47.558;7.602;2023-07-29T00:08:14;2.20;;;2.10;;
357;SDS011;167;47.558;7.602;2023-07-29T00:10:40;2.70;;;1.80;;
357;SDS011;167;47.558;7.602;2023-07-29T00:13:06;2.00;;;1.90;;
357;SDS011;167;47.558;7.602;2023-07-29T00:15:32;2.13;;;1.70;;
357;SDS011;167;47.558;7.602;2023-07-29T00:17:58;2.13;;;2.03;;
357;SDS011;167;47.558;7.602;2023-07-29T00:20:24;2.60;;;2.40;;
357;SDS011;167;47.558;7.602;2023-07-29T00:22:50;1.93;;;1.83;;
357;SDS011;167;47.558;7.602;2023-07-29T00:25:19;2.07;;;1.97;;
357;SDS011;167;47.558;7.602;2023-07-29T00:27:45;2.63;;;1.90;;
357;SDS011;167;47.558;7.602;2023-07-29T00:30:11;1.90;;;1.80;;
357;SDS011;167;47.558;7.602;2023-07-29T00:32:37;2.10;;;2.00;;
357;SDS011;167;47.558;7.602;2023-07-29T00:35:03;2.33;;;2.10;;
357;SDS011;167;47.558;7.602;2023-07-29T00:37:29;2.20;;;2.10;;
357;SDS011;167;47.558;7.602;2023-07-29T00:39:55;4.40;;;2.30;;
357;SDS011;167;47.558;7.602;2023-07-29T00:42:21;2.30;;;2.20;;
357;SDS011;167;47.558;7.602;2023-07-29T00:44:47;3.43;;;2.67;;
357;SDS011;167;47.558;7.602;2023-07-29T00:47:14;2.20;;;2.07;;
357;SDS011;167;47.558;7.602;2023-07-29T00:49:40;1.80;;;1.70;;
357;SDS011;167;47.558;7.602;2023-07-29T00:52:07;2.37;;;1.73;;
357;SDS011;167;47.558;7.602;2023-07-29T00:54:33;2.20;;;2.10;;
357;SDS011;167;47.558;7.602;2023-07-29T00:56:59;2.10;;;2.00;;
357;SDS011;167;47.558;7.602;2023-07-29T00:59:25;2.10;;;2.00;;
357;SDS011;167;47.558;7.602;2023-07-29T01:01:53;1.97;;;1.83;;
357;SDS011;167;47.558;7.602;2023-07-29T01:04:19;2.40;;;2.20;;
357;SDS011;167;47.558;7.602;2023-07-29T01:06:58;2.40;;;2.10;;
357;SDS011;167;47.558;7.602;2023-07-29T01:14:47;1.80;;;1.70;;
357;SDS011;167;47.558;7.602;2023-07-29T01:17:15;1.93;;;1.70;;
357;SDS011;167;47.558;7.602;2023-07-29T01:22:31;1.90;;;1.80;;
357;SDS011;167;47.558;7.602;2023-07-29T01:24:58;2.60;;;2.00;;
357;SDS011;167;47.558;7.602;2023-07-29T01:27:24;2.03;;;1.93;;
357;SDS011;167;47.558;7.602;2023-07-29T01:29:50;2.20;;;1.73;;
357;SDS011;167;47.558;7.602;2023-07-29T01:32:36;2.00;;;1.90;;
357;SDS011;167;47.558;7.602;2023-07-29T01:35:07;2.80;;;2.60;;
357;SDS011;167;47.558;7.602;2023-07-29T01:37:35;2.77;;;2.27;;
357;SDS011;167;47.558;7.602;2023-07-29T01:40:03;6.03;;;2.40;;
357;SDS011;167;47.558;7.602;2023-07-29T01:42:29;4.83;;;2.30;;
357;SDS011;167;47.558;7.602;2023-07-29T01:44:56;2.03;;;1.93;;
357;SDS011;167;47.558;7.602;2023-07-29T01:47:22;3.20;;;3.00;;
357;SDS011;167;47.558;7.602;2023-07-29T01:49:48;2.23;;;2.10;;
357;SDS011;167;47.558;7.602;2023-07-29T01:52:14;2.50;;;2.10;;
357;SDS011;167;47.558;7.602;2023-07-29T01:54:40;2.57;;;2.30;;
357;SDS011;167;47.558;7.602;2023-07-29T01:57:06;2.03;;;1.83;;
357;SDS011;167;47.558;7.602;2023-07-29T01:59:32;1.90;;;1.80;;
357;SDS011;167;47.558;7.602;2023-07-29T02:01:58;2.47;;;2.27;;
357;SDS011;167;47.558;7.602;2023-07-29T02:04:26;2.20;;;2.10;;
357;SDS011;167;47.558;7.602;2023-07-29T02:06:52;2.07;;;1.97;;
357;SDS011;167;47.558;7.602;2023-07-29T02:09:19;2.13;;;2.03;;
357;SDS011;167;47.558;7.602;2023-07-29T02:11:45;2.20;;;2.10;;
357;SDS011;167;47.558;7.602;2023-07-29T02:14:11;2.10;;;1.90;;
357;SDS011;167;47.558;7.602;2023-07-29T02:16:37;2.17;;;2.07;;
357;SDS011;167;47.558;7.602;2023-07-29T02:19:04;5.43;;;2.70;;
357;SDS011;167;47.558;7.602;2023-07-29T02:21:29;2.23;;;2.13;;
357;SDS011;167;47.558;7.602;2023-07-29T02:23:55;2.33;;;2.00;;
357;SDS011;167;47.558;7.602;2023-07-29T02:26:22;2.77;;;2.57;;
357;SDS011;167;47.558;7.602;2023-07-29T02:28:48;2.83;;;2.63;;
357;SDS011;167;47.558;7.602;2023-07-29T02:31:15;2.40;;;2.30;;
357;SDS011;167;47.558;7.602;2023-07-29T02:33:41;2.77;;;2.57;;
357;SDS011;167;47.558;7.602;2023-07-29T02:36:07;2.40;;;2.30;;
357;SDS011;167;47.558;7.602;2023-07-29T02:38:33;4.37;;;2.47;;
357;SDS011;167;47.558;7.602;2023-07-29T02:40:59;3.93;;;3.50;;
357;SDS011;167;47.558;7.602;2023-07-29T02:43:25;2.43;;;2.30;;
357;SDS011;167;47.558;7.602;2023-07-29T02:45:51;2.77;;;2.57;;
357;SDS011;167;47.558;7.602;2023-07-29T02:48:17;3.10;;;2.30;;
357;SDS011;167;47.558;7.602;2023-07-29T02:50:43;2.10;;;2.00;;
357;SDS011;167;47.558;7.602;2023-07-29T02:53:09;2.97;;;2.67;;
357;SDS011;167;47.558;7.602;2023-07-29T02:55:35;2.40;;;2.30;;
357;SDS011;167;47.558;7.602;2023-07-29T02:58:01;2.40;;;2.30;;
357;SDS011;167;47.558;7.602;2023-07-29T03:00:27;2.07;;;1.97;;
357;SDS011;167;47.558;7.602;2023-07-29T03:02:56;3.10;;;2.43;;
357;SDS011;167;47.558;7.602;2023-07-29T03:05:22;2.53;;;2.33;;
357;SDS011;167;47.558;7.602;2023-07-29T03:07:48;2.87;;;2.70;;
357;SDS011;167;47.558;7.602;2023-07-29T03:10:14;2.20;;;2.10;;
357;SDS011;167;47.558;7.602;2023-07-29T03:12:40;2.93;;;2.70;;
357;SDS011;167;47.558;7.602;2023-07-29T03:15:06;3.00;;;2.80;;
357;SDS011;167;47.558;7.602;2023-07-29T03:17:32;2.90;;;2.73;;
357;SDS011;167;47.558;7.602;2023-07-29T03:19:58;3.10;;;2.93;;
357;SDS011;167;47.558;7.602;2023-07-29T03:22:24;3.00;;;2.70;;
357;SDS011;167;47.558;7.602;2023-07-29T03:24:50;2.40;;;2.30;;
357;SDS011;167;47.558;7.602;2023-07-29T03:27:16;2.00;;;1.90;;
357;SDS011;167;47.558;7.602;2023-07-29T03:29:42;3.13;;;2.20;;
357;SDS011;167;47.558;7.602;2023-07-29T03:32:08;2.13;;;2.03;;
357;SDS011;167;47.558;7.602;2023-07-29T03:34:34;3.00;;;2.37;;
357;SDS011;167;47.558;7.602;2023-07-29T03:37:00;2.50;;;2.10;;
357;SDS011;167;47.558;7.602;2023-07-29T03:39:26;2.50;;;2.30;;
357;SDS011;167;47.558;7.602;2023-07-29T03:41:52;2.70;;;2.50;;
357;SDS011;167;47.558;7.602;2023-07-29T03:44:18;2.30;;;2.20;;
357;SDS011;167;47.558;7.602;2023-07-29T03:46:44;2.50;;;2.30;;
357;SDS011;167;47.558;7.602;2023-07-29T03:49:10;2.40;;;2.30;;
357;SDS011;167;47.558;7.602;2023-07-29T03:51:36;2.83;;;2.63;;
357;SDS011;167;47.558;7.602;2023-07-29T03:54:02;2.63;;;2.53;;
357;SDS011;167;47.558;7.602;2023-07-29T03:56:28;2.60;;;2.40;;
357;SDS011;167;47.558;7.602;2023-07-29T03:59:01;2.87;;;2.70;;
357;SDS011;167;47.558;7.602;2023-07-29T04:01:28;2.90;;;2.80;;
357;SDS011;167;47.558;7.602;2023-07-29T04:03:54;2.40;;;2.27;;
357;SDS011;167;47.558;7.602;2023-07-29T04:06:20;2.80;;;2.70;;
357;SDS011;167;47.558;7.602;2023-07-29T04:08:46;2.80;;;2.60;;
357;SDS011;167;47.558;7.602;2023-07-29T04:11:12;3.20;;;3.00;;
357;SDS011;167;47.558;7.602;2023-07-29T04:13:38;3.17;;;2.87;;
357;SDS011;167;47.558;7.602;2023-07-29T04:16:04;2.50;;;2.40;;
357;SDS011;167;47.558;7.602;2023-07-29T04:18:30;3.27;;;3.07;;
357;SDS011;167;47.558;7.602;2023-07-29T04:20:56;3.63;;;3.33;;
357;SDS011;167;47.558;7.602;2023-07-29T04:23:22;3.00;;;2.80;;
357;SDS011;167;47.558;7.602;2023-07-29T04:25:48;2.80;;;2.60;;
357;SDS011;167;47.558;7.602;2023-07-29T04:28:15;3.07;;;2.87;;
357;SDS011;167;47.558;7.602;2023-07-29T04:30:41;2.97;;;2.87;;
357;SDS011;167;47.558;7.602;2023-07-29T04:33:07;3.77;;;3.07;;
357;SDS011;167;47.558;7.602;2023-07-29T04:35:33;3.50;;;2.43;;
357;SDS011;167;47.558;7.602;2023-07-29T04:37:59;2.67;;;2.57;;
357;SDS011;167;47.558;7.602;2023-07-29T04:40:24;2.90;;;2.70;;
357;SDS011;167;47.558;7.602;2023-07-29T04:42:51;2.80;;;2.60;;
357;SDS011;167;47.558;7.602;2023-07-29T04:45:17;2.90;;;2.70;;
357;SDS011;167;47.558;7.602;2023-07-29T04:47:43;3.07;;;2.80;;
357;SDS011;167;47.558;7.602;2023-07-29T04:50:09;3.43;;;3.10;;
357;SDS011;167;47.558;7.602;2023-07-29T04:52:35;3.27;;;3.00;;
357;SDS011;167;47.558;7.602;2023-07-29T04:55:01;3.10;;;2.90;;
357;SDS011;167;47.558;7.602;2023-07-29T04:57:27;3.60;;;3.30;;
357;SDS011;167;47.558;7.602;2023-07-29T04:59:52;3.43;;;3.13;;
357;SDS011;167;47.558;7.602;2023-07-29T05:02:18;3.27;;;3.07;;
357;SDS011;167;47.558;7.602;2023-07-29T05:04:46;3.37;;;3.07;;
357;SDS011;167;47.558;7.602;2023-07-29T05:07:11;3.40;;;3.20;;
357;SDS011;167;47.558;7.602;2023-07-29T05:09:37;2.87;;;2.77;;
357;SDS011;167;47.558;7.602;2023-07-29T05:12:03;3.47;;;3.27;;
357;SDS011;167;47.558;7.602;2023-07-29T05:14:30;2.63;;;2.43;;
357;SDS011;167;47.558;7.602;2023-07-29T05:16:55;2.80;;;2.70;;
357;SDS011;167;47.558;7.602;2023-07-29T05:19:21;2.77;;;2.57;;
357;SDS011;167;47.558;7.602;2023-07-29T05:21:47;2.50;;;2.40;;
357;SDS011;167;47.558;7.602;2023-07-29T05:24:13;2.60;;;2.40;;
357;SDS011;167;47.558;7.602;2023-07-29T05:26:39;2.30;;;2.20;;
357;SDS011;167;47.558;7.602;2023-07-29T05:29:05;3.13;;;2.93;;
357;SDS011;167;47.558;7.602;2023-07-29T05:31:31;2.60;;;2.30;;
357;SDS011;167;47.558;7.602;2023-07-29T05:33:58;2.87;;;2.60;;
357;SDS011;167;47.558;7.602;2023-07-29T05:36:24;3.13;;;2.83;;
357;SDS011;167;47.558;7.602;2023-07-29T05:38:51;3.13;;;2.93;;
357;SDS011;167;47.558;7.602;2023-07-29T05:41:17;3.33;;;3.07;;
357;SDS011;167;47.558;7.602;2023-07-29T05:43:43;3.10;;;2.90;;
357;SDS011;167;47.558;7.602;2023-07-29T05:46:10;3.00;;;2.80;;
357;SDS011;167;47.558;7.602;2023-07-29T05:48:36;3.03;;;2.83;;
357;SDS011;167;47.558;7.602;2023-07-29T05:51:02;3.00;;;2.80;;
357;SDS011;167;47.558;7.602;2023-07-29T05:53:30;3.07;;;2.90;;
357;SDS011;167;47.558;7.602;2023-07-29T05:55:56;3.53;;;3.33;;
357;SDS011;167;47.558;7.602;2023-07-29T05:58:22;3.40;;;3.20;;
357;SDS011;167;47.558;7.602;2023-07-29T06:00:48;4.03;;;3.50;;
357;SDS011;167;47.558;7.602;2023-07-29T06:03:14;3.17;;;2.97;;
357;SDS011;167;47.558;7.602;2023-07-29T06:05:40;2.90;;;2.70;;
357;SDS011;167;47.558;7.602;2023-07-29T06:08:06;2.93;;;2.73;;
357;SDS011;167;47.558;7.602;2023-07-29T06:10:33;2.90;;;2.67;;
357;SDS011;167;47.558;7.602;2023-07-29T06:12:59;2.60;;;2.50;;
357;SDS011;167;47.558;7.602;2023-07-29T06:15:25;2.57;;;2.40;;
357;SDS011;167;47.558;7.602;2023-07-29T06:17:51;2.77;;;2.57;;
357;SDS011;167;47.558;7.602;2023-07-29T06:20:17;2.50;;;2.40;;
357;SDS011;167;47.558;7.602;2023-07-29T06:22:43;2.60;;;2.50;;
357;SDS011;167;47.558;7.602;2023-07-29T06:25:09;2.57;;;2.37;;
357;SDS011;167;47.558;7.602;2023-07-29T06:27:35;2.63;;;2.53;;
357;SDS011;167;47.558;7.602;2023-07-29T06:30:01;2.77;;;2.67;;
357;SDS011;167;47.558;7.602;2023-07-29T06:32:27;1.87;;;1.77;;
357;SDS011;167;47.558;7.602;2023-07-29T06:34:53;2.63;;;2.43;;
357;SDS011;167;47.558;7.602;2023-07-29T06:37:20;2.27;;;2.17;;
357;SDS011;167;47.558;7.602;2023-07-29T06:39:46;1.77;;;1.77;;
357;SDS011;167;47.558;7.602;2023-07-29T06:42:12;2.13;;;2.03;;
357;SDS011;167;47.558;7.602;2023-07-29T06:44:39;2.13;;;2.03;;
357;SDS011;167;47.558;7.602;2023-07-29T06:47:05;2.30;;;2.20;;
357;SDS011;167;47.558;7.602;2023-07-29T06:49:31;2.40;;;2.30;;
357;SDS011;167;47.558;7.602;2023-07-29T06:51:57;3.07;;;2.13;;
357;SDS011;167;47.558;7.602;2023-07-29T06:54:26;2.60;;;2.40;;
357;SDS011;167;47.558;7.602;2023-07-29T06:56:52;2.10;;;2.00;;
357;SDS011;167;47.558;7.602;2023-07-29T06:59:18;2.20;;;2.07;;
357;SDS011;167;47.558;7.602;2023-07-29T07:01:44;2.60;;;2.40;;
357;SDS011;167;47.558;7.602;2023-07-29T07:04:10;2.23;;;2.03;;
357;SDS011;167;47.558;7.602;2023-07-29T07:06:36;2.20;;;2.10;;
357;SDS011;167;47.558;7.602;2023-07-29T07:09:02;2.80;;;2.60;;
357;SDS011;167;47.558;7.602;2023-07-29T07:11:28;2.10;;;2.00;;
357;SDS011;167;47.558;7.602;2023-07-29T07:13:54;1.93;;;1.77;;
357;SDS011;167;47.558;7.602;2023-07-29T07:16:19;2.17;;;2.07;;
357;SDS011;167;47.558;7.602;2023-07-29T07:18:45;2.93;;;2.20;;
357;SDS011;167;47.558;7.602;2023-07-29T07:21:11;1.63;;;1.63;;
357;SDS011;167;47.558;7.602;2023-07-29T07:23:38;2.20;;;2.00;;
357;SDS011;167;47.558;7.602;2023-07-29T07:26:04;1.90;;;1.80;;
357;SDS011;167;47.558;7.602;2023-07-29T07:28:30;1.90;;;1.80;;
357;SDS011;167;47.558;7.602;2023-07-29T07:30:56;2.30;;;2.10;;
357;SDS011;167;47.558;7.602;2023-07-29T07:33:22;1.60;;;1.50;;
357;SDS011;167;47.558;7.602;2023-07-29T07:35:48;1.20;;;1.20;;
357;SDS011;167;47.558;7.602;2023-07-29T07:38:14;2.17;;;1.27;;
357;SDS011;167;47.558;7.602;2023-07-29T07:40:40;1.20;;;1.20;;
357;SDS011;167;47.558;7.602;2023-07-29T07:43:06;1.03;;;0.93;;
357;SDS011;167;47.558;7.602;2023-07-29T07:45:32;1.27;;;1.27;;
357;SDS011;167;47.558;7.602;2023-07-29T07:47:58;1.17;;;1.17;;
357;SDS011;167;47.558;7.602;2023-07-29T07:50:24;1.00;;;1.00;;
357;SDS011;167;47.558;7.602;2023-07-29T07:52:50;0.73;;;0.73;;
357;SDS011;167;47.558;7.602;2023-07-29T07:55:16;0.90;;;0.90;;
357;SDS011;167;47.558;7.602;2023-07-29T07:57:42;0.90;;;0.90;;
357;SDS011;167;47.558;7.602;2023-07-29T08:00:08;1.00;;;1.00;;
357;SDS011;167;47.558;7.602;2023-07-29T08:02:34;1.50;;;1.20;;
357;SDS011;167;47.558;7.602;2023-07-29T08:05:00;1.80;;;1.10;;
357;SDS011;167;47.558;7.602;2023-07-29T08:07:26;0.90;;;0.90;;
357;SDS011;167;47.558;7.602;2023-07-29T08:09:52;1.00;;;1.00;;
357;SDS011;167;47.558;7.602;2023-07-29T08:12:18;0.90;;;0.90;;
357;SDS011;167;47.558;7.602;2023-07-29T08:14:44;0.90;;;0.90;;
357;SDS011;167;47.558;7.602;2023-07-29T08:17:10;0.80;;;0.80;;
357;SDS011;167;47.558;7.602;2023-07-29T08:19:36;1.10;;;1.10;;
357;SDS011;167;47.558;7.602;2023-07-29T08:22:02;0.93;;;0.93;;
357;SDS011;167;47.558;7.602;2023-07-29T08:24:29;0.87;;;0.87;;
357;SDS011;167;47.558;7.602;2023-07-29T08:26:55;0.87;;;0.87;;
357;SDS011;167;47.558;7.602;2023-07-29T08:29:21;1.20;;;1.13;;
357;SDS011;167;47.558;7.602;2023-07-29T08:31:47;1.43;;;0.83;;
357;SDS011;167;47.558;7.602;2023-07-29T08:34:13;1.57;;;0.70;;
357;SDS011;167;47.558;7.602;2023-07-29T08:36:39;0.80;;;0.80;;
357;SDS011;167;47.558;7.602;2023-07-29T08:39:05;0.80;;;0.80;;
357;SDS011;167;47.558;7.602;2023-07-29T08:41:41;0.60;;;0.60;;
357;SDS011;167;47.558;7.602;2023-07-29T08:44:23;0.80;;;0.80;;
357;SDS011;167;47.558;7.602;2023-07-29T08:46:51;0.73;;;0.73;;
357;SDS011;167;47.558;7.602;2023-07-29T08:49:19;0.80;;;0.80;;
357;SDS011;167;47.558;7.602;2023-07-29T08:51:48;1.63;;;0.80;;
357;SDS011;167;47.558;7.602;2023-07-29T08:54:15;0.80;;;0.80;;
357;SDS011;167;47.558;7.602;2023-07-29T08:56:41;0.80;;;0.80;;
357;SDS011;167;47.558;7.602;2023-07-29T08:59:10;0.87;;;0.87;;
357;SDS011;167;47.558;7.602;2023-07-29T09:01:39;1.00;;;1.00;;
357;SDS011;167;47.558;7.602;2023-07-29T09:04:05;1.00;;;1.00;;
357;SDS011;167;47.558;7.602;2023-07-29T09:06:31;0.60;;;0.60;;
357;SDS011;167;47.558;7.602;2023-07-29T09:08:58;0.80;;;0.80;;
357;SDS011;167;47.558;7.602;2023-07-29T09:11:24;0.80;;;0.80;;
357;SDS011;167;47.558;7.602;2023-07-29T09:13:50;1.10;;;1.10;;
357;SDS011;167;47.558;7.602;2023-07-29T09:16:17;1.00;;;1.00;;
357;SDS011;167;47.558;7.602;2023-07-29T09:18:44;1.00;;;1.00;;
357;SDS011;167;47.558;7.602;2023-07-29T09:21:10;1.00;;;1.00;;
357;SDS011;167;47.558;7.602;2023-07-29T09:23:42;1.63;;;1.27;;
357;SDS011;167;47.558;7.602;2023-07-29T09:26:08;1.67;;;1.20;;
357;SDS011;167;47.558;7.602;2023-07-29T09:28:34;1.17;;;1.17;;
357;SDS011;167;47.558;7.602;2023-07-29T09:31:01;1.27;;;1.17;;
357;SDS011;167;47.558;7.602;2023-07-29T09:33:27;0.90;;;0.90;;
357;SDS011;167;47.558;7.602;2023-07-29T09:35:53;1.30;;;1.30;;
357;SDS011;167;47.558;7.602;2023-07-29T09:38:25;1.00;;;1.00;;
357;SDS011;167;47.558;7.602;2023-07-29T09:40:51;1.10;;;1.10;;
357;SDS011;167;47.558;7.602;2023-07-29T09:43:20;1.00;;;1.00;;
357;SDS011;167;47.558;7.602;2023-07-29T09:45:51;0.80;;;0.80;;
357;SDS011;167;47.558;7.602;2023-07-29T09:48:19;1.07;;;1.07;;
357;SDS011;167;47.558;7.602;2023-07-29T09:50:47;1.07;;;1.07;;
357;SDS011;167;47.558;7.602;2023-07-29T09:53:13;1.00;;;1.00;;
357;SDS011;167;47.558;7.602;2023-07-29T09:55:39;0.70;;;0.70;;
357;SDS011;167;47.558;7.602;2023-07-29T09:58:05;0.80;;;0.80;;
357;SDS011;167;47.558;7.602;2023-07-29T10:00:33;1.30;;;1.20;;
357;SDS011;167;47.558;7.602;2023-07-29T10:03:00;1.10;;;0.83;;
357;SDS011;167;47.558;7.602;2023-07-29T10:05:26;1.20;;;1.10;;
357;SDS011;167;47.558;7.602;2023-07-29T10:07:53;1.30;;;1.23;;
357;SDS011;167;47.558;7.602;2023-07-29T10:10:19;1.63;;;1.10;;
357;SDS011;167;47.558;7.602;2023-07-29T10:12:45;1.30;;;1.20;;
357;SDS011;167;47.558;7.602;2023-07-29T10:15:11;0.83;;;0.83;;
357;SDS011;167;47.558;7.602;2023-07-29T10:17:38;0.93;;;0.93;;
357;SDS011;167;47.558;7.602;2023-07-29T10:20:04;1.00;;;1.00;;
357;SDS011;167;47.558;7.602;2023-07-29T10:22:41;1.20;;;0.93;;
357;SDS011;167;47.558;7.602;2023-07-29T10:25:08;1.40;;;1.30;;
357;SDS011;167;47.558;7.602;2023-07-29T10:30:26;1.13;;;0.90;;
357;SDS011;167;47.558;7.602;2023-07-29T10:32:53;1.10;;;1.10;;
357;SDS011;167;47.558;7.602;2023-07-29T10:35:22;1.00;;;1.00;;
357;SDS011;167;47.558;7.602;2023-07-29T10:37:48;1.10;;;1.10;;
357;SDS011;167;47.558;7.602;2023-07-29T10:40:16;1.10;;;1.10;;
357;SDS011;167;47.558;7.602;2023-07-29T10:43:02;1.10;;;1.10;;
357;SDS011;167;47.558;7.602;2023-07-29T10:45:38;1.20;;;1.20;;
357;SDS011;167;47.558;7.602;2023-07-29T10:48:05;1.03;;;1.03;;
357;SDS011;167;47.558;7.602;2023-07-29T10:50:31;2.30;;;1.60;;
357;SDS011;167;47.558;7.602;2023-07-29T10:52:57;1.30;;;1.30;;
357;SDS011;167;47.558;7.602;2023-07-29T10:55:33;1.30;;;1.30;;
357;SDS011;167;47.558;7.602;2023-07-29T10:58:05;1.87;;;1.77;;
357;SDS011;167;47.558;7.602;2023-07-29T11:00:32;1.13;;;1.13;;
357;SDS011;167;47.558;7.602;2023-07-29T11:03:16;1.60;;;1.50;;
357;SDS011;167;47.558;7.602;2023-07-29T11:05:43;1.30;;;1.30;;
357;SDS011;167;47.558;7.602;2023-07-29T11:08:22;1.23;;;1.23;;
357;SDS011;167;47.558;7.602;2023-07-29T11:11:05;1.47;;;1.47;;
357;SDS011;167;47.558;7.602;2023-07-29T11:13:32;1.30;;;1.30;;
357;SDS011;167;47.558;7.602;2023-07-29T11:15:58;1.40;;;1.40;;
357;SDS011;167;47.558;7.602;2023-07-29T11:18:28;1.27;;;1.27;;
357;SDS011;167;47.558;7.602;2023-07-29T11:20:55;1.10;;;1.10;;
357;SDS011;167;47.558;7.602;2023-07-29T11:23:26;1.17;;;1.17;;
357;SDS011;167;47.558;7.602;2023-07-29T11:25:53;1.53;;;1.43;;
357;SDS011;167;47.558;7.602;2023-07-29T11:28:19;1.70;;;1.60;;
357;SDS011;167;47.558;7.602;2023-07-29T11:30:45;1.70;;;1.70;;
357;SDS011;167;47.558;7.602;2023-07-29T11:33:11;1.90;;;1.80;;
357;SDS011;167;47.558;7.602;2023-07-29T11:35:38;4.20;;;1.60;;
357;SDS011;167;47.558;7.602;2023-07-29T11:38:04;2.67;;;1.80;;
357;SDS011;167;47.558;7.602;2023-07-29T11:40:30;2.00;;;1.90;;
357;SDS011;167;47.558;7.602;2023-07-29T11:42:55;1.77;;;1.67;;
357;SDS011;167;47.558;7.602;2023-07-29T11:45:22;1.63;;;1.53;;
357;SDS011;167;47.558;7.602;2023-07-29T11:47:48;1.67;;;1.57;;
357;SDS011;167;47.558;7.602;2023-07-29T11:50:14;1.90;;;1.80;;
357;SDS011;167;47.558;7.602;2023-07-29T11:52:41;1.93;;;1.83;;
357;SDS011;167;47.558;7.602;2023-07-29T11:55:07;1.40;;;1.40;;
357;SDS011;167;47.558;7.602;2023-07-29T11:57:34;1.80;;;1.70;;
357;SDS011;167;47.558;7.602;2023-07-29T12:00:04;1.70;;;1.60;;
357;SDS011;167;47.558;7.602;2023-07-29T12:02:31;2.03;;;1.93;;
357;SDS011;167;47.558;7.602;2023-07-29T12:04:57;1.60;;;1.60;;
357;SDS011;167;47.558;7.602;2023-07-29T12:07:24;1.30;;;1.30;;
357;SDS011;167;47.558;7.602;2023-07-29T12:09:50;1.50;;;1.50;;
357;SDS011;167;47.558;7.602;2023-07-29T12:12:16;2.07;;;1.97;;
357;SDS011;167;47.558;7.602;2023-07-29T12:14:43;1.40;;;1.40;;
357;SDS011;167;47.558;7.602;2023-07-29T12:17:10;1.40;;;1.40;;
357;SDS011;167;47.558;7.602;2023-07-29T12:19:37;1.47;;;1.40;;
357;SDS011;167;47.558;7.602;2023-07-29T12:22:03;1.87;;;1.77;;
357;SDS011;167;47.558;7.602;2023-07-29T12:24:30;1.60;;;1.60;;
357;SDS011;167;47.558;7.602;2023-07-29T12:26:56;1.60;;;1.60;;
357;SDS011;167;47.558;7.602;2023-07-29T12:29:22;1.53;;;1.53;;
357;SDS011;167;47.558;7.602;2023-07-29T12:31:49;1.53;;;1.43;;
357;SDS011;167;47.558;7.602;2023-07-29T12:34:19;1.50;;;1.50;;
357;SDS011;167;47.558;7.602;2023-07-29T12:36:46;1.57;;;1.47;;
357;SDS011;167;47.558;7.602;2023-07-29T12:39:20;1.97;;;1.57;;
357;SDS011;167;47.558;7.602;2023-07-29T12:41:47;1.57;;;1.57;;
357;SDS011;167;47.558;7.602;2023-07-29T12:44:14;1.50;;;1.50;;
357;SDS011;167;47.558;7.602;2023-07-29T12:46:40;1.93;;;1.80;;
357;SDS011;167;47.558;7.602;2023-07-29T12:49:06;2.50;;;2.40;;
357;SDS011;167;47.558;7.602;2023-07-29T12:51:32;2.30;;;2.10;;
357;SDS011;167;47.558;7.602;2023-07-29T12:53:58;2.03;;;1.93;;
357;SDS011;167;47.558;7.602;2023-07-29T12:56:24;1.97;;;1.90;;
357;SDS011;167;47.558;7.602;2023-07-29T12:58:50;2.07;;;2.00;;
357;SDS011;167;47.558;7.602;2023-07-29T13:01:16;2.20;;;2.10;;
357;SDS011;167;47.558;7.602;2023-07-29T13:03:43;2.20;;;2.10;;
357;SDS011;167;47.558;7.602;2023-07-29T13:06:09;1.90;;;1.80;;
357;SDS011;167;47.558;7.602;2023-07-29T13:08:35;2.00;;;1.90;;
357;SDS011;167;47.558;7.602;2023-07-29T13:11:01;2.27;;;2.17;;
357;SDS011;167;47.558;7.602;2023-07-29T13:13:28;2.37;;;2.27;;
357;SDS011;167;47.558;7.602;2023-07-29T13:15:54;2.30;;;2.20;;
357;SDS011;167;47.558;7.602;2023-07-29T13:18:20;2.00;;;1.90;;
357;SDS011;167;47.558;7.602;2023-07-29T13:20:46;2.33;;;2.23;;
357;SDS011;167;47.558;7.602;2023-07-29T13:23:13;4.30;;;2.80;;
357;SDS011;167;47.558;7.602;2023-07-29T13:25:38;2.20;;;2.10;;
357;SDS011;167;47.558;7.602;2023-07-29T13:28:04;2.10;;;2.00;;
357;SDS011;167;47.558;7.602;2023-07-29T13:30:30;3.00;;;2.80;;
357;SDS011;167;47.558;7.602;2023-07-29T13:32:56;2.80;;;2.60;;
357;SDS011;167;47.558;7.602;2023-07-29T13:35:22;2.30;;;2.20;;
357;SDS011;167;47.558;7.602;2023-07-29T13:37:48;2.70;;;2.60;;
357;SDS011;167;47.558;7.602;2023-07-29T13:40:14;2.07;;;1.97;;
357;SDS011;167;47.558;7.602;2023-07-29T13:42:40;2.43;;;2.30;;
357;SDS011;167;47.558;7.602;2023-07-29T13:45:06;3.30;;;3.10;;
357;SDS011;167;47.558;7.602;2023-07-29T13:47:33;3.10;;;3.00;;
357;SDS011;167;47.558;7.602;2023-07-29T13:49:59;2.90;;;2.77;;
357;SDS011;167;47.558;7.602;2023-07-29T13:52:25;2.90;;;2.70;;
357;SDS011;167;47.558;7.602;2023-07-29T13:54:51;3.43;;;3.20;;
357;SDS011;167;47.558;7.602;2023-07-29T13:57:17;3.73;;;3.43;;
357;SDS011;167;47.558;7.602;2023-07-29T13:59:43;2.57;;;2.40;;
357;SDS011;167;47.558;7.602;2023-07-29T14:02:09;2.20;;;2.10;;
357;SDS011;167;47.558;7.602;2023-07-29T14:04:35;2.30;;;2.20;;
357;SDS011;167;47.558;7.602;2023-07-29T14:07:01;2.00;;;1.90;;
357;SDS011;167;47.558;7.602;2023-07-29T14:09:27;1.90;;;1.80;;
357;SDS011;167;47.558;7.602;2023-07-29T14:11:56;2.13;;;2.03;;
357;SDS011;167;47.558;7.602;2023-07-29T14:14:22;1.60;;;1.50;;
357;SDS011;167;47.558;7.602;2023-07-29T14:16:48;2.17;;;2.07;;
357;SDS011;167;47.558;7.602;2023-07-29T14:19:14;1.53;;;1.43;;
357;SDS011;167;47.558;7.602;2023-07-29T14:21:40;1.47;;;1.43;;
357;SDS011;167;47.558;7.602;2023-07-29T14:24:06;2.30;;;2.20;;
357;SDS011;167;47.558;7.602;2023-07-29T14:26:32;2.10;;;1.80;;
357;SDS011;167;47.558;7.602;2023-07-29T14:28:58;1.97;;;1.87;;
357;SDS011;167;47.558;7.602;2023-07-29T14:31:24;2.70;;;1.53;;
357;SDS011;167;47.558;7.602;2023-07-29T14:33:49;1.40;;;1.40;;
357;SDS011;167;47.558;7.602;2023-07-29T14:36:16;2.40;;;1.80;;
357;SDS011;167;47.558;7.602;2023-07-29T14:38:42;1.67;;;1.67;;
357;SDS011;167;47.558;7.602;2023-07-29T14:41:08;1.37;;;1.37;;
357;SDS011;167;47.558;7.602;2023-07-29T14:43:34;1.63;;;1.53;;
357;SDS011;167;47.558;7.602;2023-07-29T14:46:01;1.63;;;1.60;;
357;SDS011;167;47.558;7.602;2023-07-29T14:48:27;1.33;;;1.33;;
357;SDS011;167;47.558;7.602;2023-07-29T14:50:53;1.90;;;1.80;;
357;SDS011;167;47.558;7.602;2023-07-29T14:53:19;1.43;;;1.43;;
357;SDS011;167;47.558;7.602;2023-07-29T14:55:45;1.70;;;1.50;;
357;SDS011;167;47.558;7.602;2023-07-29T14:58:11;1.70;;;1.60;;
357;SDS011;167;47.558;7.602;2023-07-29T15:00:37;3.37;;;1.87;;
357;SDS011;167;47.558;7.602;2023-07-29T15:03:03;1.93;;;1.80;;
357;SDS011;167;47.558;7.602;2023-07-29T15:05:29;1.70;;;1.60;;
357;SDS011;167;47.558;7.602;2023-07-29T15:07:55;1.73;;;1.70;;
357;SDS011;167;47.558;7.602;2023-07-29T15:10:21;1.73;;;1.63;;
357;SDS011;167;47.558;7.602;2023-07-29T15:12:47;2.00;;;1.90;;
357;SDS011;167;47.558;7.602;2023-07-29T15:15:13;2.00;;;1.90;;
357;SDS011;167;47.558;7.602;2023-07-29T15:17:39;1.77;;;1.60;;
357;SDS011;167;47.558;7.602;2023-07-29T15:20:05;2.10;;;1.93;;
357;SDS011;167;47.558;7.602;2023-07-29T15:22:31;1.80;;;1.70;;
357;SDS011;167;47.558;7.602;2023-07-29T15:24:57;2.43;;;2.23;;
357;SDS011;167;47.558;7.602;2023-07-29T15:27:27;3.27;;;3.00;;
357;SDS011;167;47.558;7.602;2023-07-29T15:29:53;2.33;;;2.23;;
357;SDS011;167;47.558;7.602;2023-07-29T15:32:19;2.70;;;2.50;;
357;SDS011;167;47.558;7.602;2023-07-29T15:34:46;2.70;;;2.53;;
357;SDS011;167;47.558;7.602;2023-07-29T15:37:12;2.40;;;2.30;;
357;SDS011;167;47.558;7.602;2023-07-29T15:39:38;2.03;;;1.93;;
357;SDS011;167;47.558;7.602;2023-07-29T15:42:04;2.77;;;2.60;;
357;SDS011;167;47.558;7.602;2023-07-29T15:44:30;2.37;;;2.27;;
357;SDS011;167;47.558;7.602;2023-07-29T15:46:56;2.37;;;2.17;;
357;SDS011;167;47.558;7.602;2023-07-29T15:49:22;3.00;;;2.80;;
357;SDS011;167;47.558;7.602;2023-07-29T15:51:48;2.60;;;2.50;;